Airfield :
LOGIN :

Register | Disclaimer

   EN    FR    IT 

 










Legend :    VFR   Marginal VFR   IFR   Intensive IFR   Very Intensive IFR
Visi :
Ceiling :
>= 8 km
>= 3000ft
5 to 8 km
1000 to 3000 ft
1500m to 5 km
500 to 1000 ft
800 to 1500m
200 to 500 ft
< 800m
< 200 ft
Symbols :   Thunderstorms  Fog  Heavy snow  Heavy precipitations  Wind > 20 kt
SIGMETs :     Misc.  Thunderstorms  Icing  Turbulence  Mountain Waves  Volcanic Ashes






- Airport Elevation : 287 ft


LFRL - Lanveoc Poulmic

CURRENT METAR :
  • 131100Z AUTO 29023G35KT 9999 SCT028 BKN033 BKN054 10/05 Q0996 TEMPO 30025G45KT SCT014TCU BECMG 3000 RA

EXPIRED METARs :
  • 131030Z AUTO 28017KT 9999 FEW027/// SCT039/// BKN054/// ///TCU 09/06 Q0996 BECMG 27015G30KT 3000 RA BKN010 OVC020
  • 131000Z AUTO 29018KT 9999 BKN033/// BKN039/// OVC050/// ///TCU 09/05 Q0996 TEMPO 30025G45KT 3000 SHRA
  • 130930Z AUTO 30021G31KT 9999 FEW031/// SCT037/// BKN044/// ///TCU 09/04 Q0995 TEMPO 30025G45KT 3000 SHRA
  • 130900Z AUTO 30022KT 9999 FEW011/// SCT033/// BKN041/// ///TCU 09/05 Q0995 TEMPO 30025G45KT 3000 SHRA
  • 130830Z AUTO 30021KT 9999 BKN031 BKN038 OVC200 09/05 Q0994 TEMPO 30025G45KT 3000 SHRA SCT014TCU

TAF TAF LFRL
Valid from the 13 at 06:00 until the 14 at 06:00 UTC


130500Z 1306/1406 30025G35KT 9999 FEW030 BKN052
TEMPO 1306/1312 30025G45KT 3000 SHRA SCT014TCU
BECMG 1312/1314 27015G30KT 3000 RA BKN010 OVC020
TEMPO 1315/1321 26025G45KT 1400 RA OVC003
BECMG 1321/1324 9999 NSW BKN040
TEMPO 1400/1406 3000 SHRA BKN020TCU



MET'MAP, your aeronautical weather chart ! - Copyright ORBIFLY December 2007 - Disclaimer

ORBIFLY MET'MAP TEAM :

Programming & Development : Alexandra Zaïnal
Concept & original design : Baudouin d'Aumeries
Assistance for programming : Marc-Olivier Méhu
Technical & hardware support : Manuel Goepfert

Contact : metmap@orbifly.com




SOURCES & CREDITS :

   NOAA